Time;durP1;ratioP1;P1;durP2;ratioP2;P2;SDS_P1;SDS_P2;PMS_P1;PMS_P2;Temp;Humidity;BMP_temperature;BMP_pressure;BME280_temperature;BME280_humidity;BME280_pressure;Samples;Min_cycle;Max_cycle;Signal;HPM_P1;HPM_P2
2022/06/15 00:00:01;;;;;;;8.00;7.20;;;8.80;99.90;;;;;;5094672;28;20501;-80
2022/06/15 00:02:28;;;;;;;8.05;7.22;;;8.80;99.90;;;;;;5092377;28;20372;-82
2022/06/15 00:04:55;;;;;;;7.82;6.50;;;9.00;99.90;;;;;;5091621;28;20376;-83
2022/06/15 00:07:22;;;;;;;7.70;6.47;;;9.10;99.90;;;;;;5091341;28;20417;-80
2022/06/15 00:09:49;;;;;;;7.20;6.50;;;9.10;99.90;;;;;;5091292;28;20360;-80
2022/06/15 00:12:16;;;;;;;7.25;6.55;;;9.10;99.90;;;;;;5091146;28;20849;-81
2022/06/15 00:14:44;;;;;;;8.85;6.10;;;9.30;99.90;;;;;;5090998;28;20379;-82
2022/06/15 00:17:11;;;;;;;6.78;5.88;;;9.50;99.90;;;;;;5090756;28;20364;-80
2022/06/15 00:19:38;;;;;;;7.47;5.70;;;9.70;99.90;;;;;;5090776;28;20918;-80
2022/06/15 00:22:06;;;;;;;11.77;6.25;;;9.80;99.90;;;;;;5072783;28;20755;-81
2022/06/15 00:24:33;;;;;;;9.18;6.32;;;9.90;99.90;;;;;;5090546;28;20373;-82
2022/06/15 00:27:00;;;;;;;6.40;5.38;;;10.00;99.90;;;;;;5090462;28;20377;-83
2022/06/15 00:29:27;;;;;;;7.65;5.50;;;10.10;99.90;;;;;;5090116;28;20570;-80
2022/06/15 00:31:55;;;;;;;8.00;5.55;;;10.40;99.90;;;;;;5090797;28;20381;-86
2022/06/15 00:34:22;;;;;;;10.15;4.70;;;10.40;99.90;;;;;;5090448;28;20437;-82
2022/06/15 00:36:49;;;;;;;5.95;4.25;;;10.40;99.90;;;;;;5090372;28;20396;-80
2022/06/15 00:39:16;;;;;;;5.73;4.10;;;10.60;99.90;;;;;;5090742;28;20365;-85
2022/06/15 00:41:43;;;;;;;7.88;4.88;;;10.60;99.90;;;;;;5090693;28;20431;-82
2022/06/15 00:44:23;;;;;;;5.88;4.28;;;10.80;99.90;;;;;;5090461;28;20379;-82
2022/06/15 00:47:18;;;;;;;5.93;3.90;;;10.90;99.90;;;;;;5090240;28;20902;-81
2022/06/15 00:50:16;;;;;;;7.35;3.53;;;11.00;99.90;;;;;;4988941;28;20395;-81
2022/06/15 00:53:09;;;;;;;4.20;3.80;;;11.00;99.90;;;;;;4981063;28;20396;-83
2022/06/15 00:55:37;;;;;;;5.03;3.60;;;11.10;99.90;;;;;;4988903;28;20935;-83
2022/06/15 00:58:10;;;;;;;2.80;2.07;;;11.10;99.90;;;;;;4988862;28;20515;-85
2022/06/15 01:00:37;;;;;;;2.35;2.00;;;11.20;99.90;;;;;;4988664;28;20432;-84
2022/06/15 01:03:10;;;;;;;2.93;2.20;;;11.30;99.90;;;;;;4988253;28;20369;-84
2022/06/15 01:05:47;;;;;;;2.35;2.00;;;11.50;99.90;;;;;;4988141;28;20392;-84
2022/06/15 01:08:23;;;;;;;2.28;2.03;;;11.70;99.90;;;;;;4988471;28;20377;-82
2022/06/15 01:11:14;;;;;;;3.45;2.00;;;11.90;99.90;;;;;;4988368;28;20399;-84
2022/06/15 01:14:05;;;;;;;1.85;1.70;;;12.10;99.90;;;;;;4988586;28;20381;-81
2022/06/15 01:16:44;;;;;;;2.75;2.00;;;12.30;99.90;;;;;;4988372;28;20488;-81
2022/06/15 01:19:20;;;;;;;2.15;1.90;;;12.60;99.90;;;;;;4987979;28;20738;-82
2022/06/15 01:21:59;;;;;;;3.50;1.90;;;12.70;99.90;;;;;;4988235;28;20527;-82
2022/06/15 01:24:43;;;;;;;2.25;2.00;;;12.70;99.90;;;;;;4988368;28;20404;-79
2022/06/15 01:27:39;;;;;;;3.70;2.08;;;13.00;99.90;;;;;;5059237;28;20866;-84
2022/06/15 01:30:15;;;;;;;3.30;2.10;;;13.00;99.90;;;;;;5089350;28;20363;-80
2022/06/15 01:33:17;;;;;;;3.35;2.10;;;13.10;99.90;;;;;;5089991;28;20368;-81
2022/06/15 01:36:10;;;;;;;3.63;1.90;;;13.20;99.90;;;;;;4993485;28;20395;-82
2022/06/15 01:38:57;;;;;;;2.83;1.90;;;13.30;99.90;;;;;;5007428;28;20446;-80
2022/06/15 01:41:34;;;;;;;3.53;1.93;;;13.40;99.90;;;;;;5007606;28;20431;-83
2022/06/15 01:44:08;;;;;;;3.22;2.00;;;13.60;99.90;;;;;;5006470;28;20394;-81
2022/06/15 01:46:39;;;;;;;2.30;1.55;;;13.70;99.90;;;;;;5007166;28;20867;-82
2022/06/15 01:49:10;;;;;;;4.35;1.70;;;14.00;99.30;;;;;;5007649;28;20376;-83
2022/06/15 01:51:43;;;;;;;4.53;1.55;;;14.10;99.30;;;;;;5007303;28;20784;-81
2022/06/15 01:54:38;;;;;;;2.90;1.55;;;14.20;98.70;;;;;;5007461;28;20856;-80
2022/06/15 01:57:08;;;;;;;3.47;1.70;;;14.20;98.90;;;;;;4929709;29;20922;-84
2022/06/15 02:00:05;;;;;;;2.70;1.60;;;14.40;96.50;;;;;;4929747;29;20394;-82
2022/06/15 02:02:48;;;;;;;3.22;1.73;;;14.60;95.60;;;;;;4927853;29;20398;-85
2022/06/15 02:05:33;;;;;;;2.77;1.30;;;14.80;96.80;;;;;;4929782;29;20394;-80
2022/06/15 02:08:39;;;;;;;2.28;1.42;;;15.10;93.60;;;;;;4930175;29;20427;-79
2022/06/15 02:11:14;;;;;;;3.20;1.58;;;15.10;92.70;;;;;;4891886;29;20882;-84
2022/06/15 02:13:50;;;;;;;2.00;1.30;;;15.20;93.40;;;;;;4947776;29;20405;-82
2022/06/15 02:16:45;;;;;;;1.60;1.50;;;15.20;92.10;;;;;;4948636;29;20939;-84
2022/06/15 02:19:18;;;;;;;2.17;1.35;;;15.30;92.00;;;;;;4946192;29;20392;-83
2022/06/15 02:21:48;;;;;;;3.15;1.50;;;15.30;92.00;;;;;;4948755;29;20415;-79
2022/06/15 02:24:19;;;;;;;4.18;1.50;;;15.40;91.50;;;;;;4948721;29;20415;-83
2022/06/15 02:26:46;;;;;;;2.33;1.50;;;15.40;91.60;;;;;;4948715;29;20734;-85
2022/06/15 02:29:18;;;;;;;2.58;1.50;;;15.50;92.00;;;;;;4948853;29;20383;-85
2022/06/15 02:31:45;;;;;;;2.20;1.60;;;15.60;91.80;;;;;;4948904;29;20511;-81
2022/06/15 02:34:13;;;;;;;2.33;1.40;;;15.60;92.40;;;;;;4987372;28;20385;-80
2022/06/15 02:36:40;;;;;;;2.80;1.42;;;15.70;91.50;;;;;;5007979;28;20427;-85
2022/06/15 02:39:09;;;;;;;3.47;1.50;;;15.80;90.90;;;;;;5006888;28;20501;-82
2022/06/15 02:41:36;;;;;;;3.10;1.52;;;15.90;90.90;;;;;;5007543;28;20403;-83
2022/06/15 02:44:06;;;;;;;3.47;1.70;;;16.00;91.20;;;;;;5006884;28;20379;-82
2022/06/15 02:46:40;;;;;;;4.25;1.67;;;16.00;91.10;;;;;;5010715;28;20395;-81
2022/06/15 02:49:07;;;;;;;3.92;1.80;;;16.00;91.00;;;;;;5088844;28;20435;-86
2022/06/15 02:51:49;;;;;;;2.22;1.60;;;16.00;91.60;;;;;;5088501;28;20821;-81
2022/06/15 02:54:41;;;;;;;3.03;1.65;;;16.20;90.40;;;;;;5088805;28;20372;-85
2022/06/15 02:57:08;;;;;;;3.47;1.35;;;16.20;89.80;;;;;;5007969;28;20730;-81
2022/06/15 02:59:35;;;;;;;2.20;1.30;;;16.30;90.10;;;;;;4994273;28;20387;-85
2022/06/15 03:02:03;;;;;;;3.35;1.30;;;16.40;88.40;;;;;;5010934;28;20396;-80
2022/06/15 03:04:30;;;;;;;2.47;1.25;;;16.40;87.20;;;;;;5010756;28;20371;-80
2022/06/15 03:06:57;;;;;;;2.85;1.20;;;16.60;85.90;;;;;;5010317;28;20477;-85
2022/06/15 03:09:24;;;;;;;3.75;1.20;;;16.80;83.60;;;;;;5010350;28;20405;-85
2022/06/15 03:11:52;;;;;;;2.03;1.13;;;16.80;82.60;;;;;;5010111;28;20391;-82
2022/06/15 03:14:19;;;;;;;2.70;1.13;;;16.80;81.70;;;;;;5009899;28;20863;-85
2022/06/15 03:16:49;;;;;;;2.92;1.40;;;16.90;82.20;;;;;;5009824;28;20383;-83
2022/06/15 03:19:16;;;;;;;2.30;1.02;;;17.00;81.90;;;;;;5009838;28;20727;-82
2022/06/15 03:21:44;;;;;;;2.80;1.00;;;17.10;81.70;;;;;;5009838;28;20493;-82
2022/06/15 03:24:11;;;;;;;1.15;0.82;;;17.20;78.40;;;;;;5010197;28;20385;-79
2022/06/15 03:26:38;;;;;;;2.20;0.90;;;17.30;76.40;;;;;;5009827;28;20836;-79
2022/06/15 03:29:06;;;;;;;2.30;1.05;;;17.30;77.40;;;;;;5009580;28;20809;-82
2022/06/15 03:31:34;;;;;;;2.97;1.10;;;17.30;76.50;;;;;;5009976;28;20863;-80
2022/06/15 03:34:01;;;;;;;0.95;0.88;;;17.30;74.00;;;;;;5047868;28;20732;-81
2022/06/15 03:36:28;;;;;;;3.25;0.90;;;17.50;74.40;;;;;;5091393;28;20396;-86
2022/06/15 03:38:56;;;;;;;2.80;0.90;;;17.60;74.40;;;;;;5091678;28;20787;-79
2022/06/15 03:41:23;;;;;;;1.50;0.80;;;17.60;73.80;;;;;;5091420;28;20396;-84
2022/06/15 03:43:50;;;;;;;1.17;0.70;;;17.60;74.10;;;;;;5091369;28;20368;-81
2022/06/15 03:46:17;;;;;;;1.02;0.80;;;17.70;71.00;;;;;;5091571;28;20473;-82
2022/06/15 03:48:45;;;;;;;1.77;0.90;;;17.80;70.80;;;;;;5091408;28;20460;-83
2022/06/15 03:51:12;;;;;;;1.80;0.90;;;17.80;71.30;;;;;;5091586;28;20384;-83
2022/06/15 03:53:39;;;;;;;1.42;0.90;;;17.70;72.20;;;;;;5091289;28;20464;-85
2022/06/15 03:56:06;;;;;;;2.28;1.00;;;17.70;70.80;;;;;;5091397;28;20445;-81
2022/06/15 03:58:33;;;;;;;1.98;0.90;;;17.80;71.80;;;;;;5091261;28;20364;-84
2022/06/15 04:01:02;;;;;;;2.30;1.03;;;17.80;67.70;;;;;;5091251;28;20475;-83
2022/06/15 04:03:29;;;;;;;1.25;0.93;;;17.80;68.00;;;;;;5091034;28;20372;-79
2022/06/15 04:05:59;;;;;;;1.15;0.82;;;17.80;67.10;;;;;;5090923;28;20471;-82
2022/06/15 04:08:35;;;;;;;1.75;0.90;;;18.00;67.70;;;;;;5090613;28;20380;-80
2022/06/15 04:11:08;;;;;;;1.50;1.00;;;18.00;67.40;;;;;;5091312;28;20395;-83
2022/06/15 04:13:36;;;;;;;2.65;0.90;;;18.00;68.50;;;;;;5091196;28;20372;-82
2022/06/15 04:16:08;;;;;;;2.08;0.90;;;18.10;68.20;;;;;;5090774;28;20365;-82
2022/06/15 04:18:36;;;;;;;1.98;1.00;;;18.10;65.80;;;;;;5091145;28;20416;-80
2022/06/15 04:21:03;;;;;;;1.90;0.90;;;18.20;66.90;;;;;;5090742;28;20748;-80
2022/06/15 04:23:30;;;;;;;1.27;0.80;;;18.20;67.40;;;;;;5091084;28;20398;-81
2022/06/15 04:26:03;;;;;;;1.05;0.90;;;18.20;65.40;;;;;;5090602;28;20387;-82
2022/06/15 04:28:33;;;;;;;1.30;1.00;;;18.20;65.30;;;;;;5090781;28;20459;-81
2022/06/15 04:31:00;;;;;;;2.40;0.87;;;18.20;65.80;;;;;;5090550;28;20727;-81
2022/06/15 04:33:28;;;;;;;2.10;0.90;;;18.30;63.20;;;;;;5090389;28;20361;-82
2022/06/15 04:35:56;;;;;;;1.48;0.80;;;18.30;62.80;;;;;;5091920;28;20909;-81
2022/06/15 04:38:23;;;;;;;0.80;0.80;;;18.40;63.30;;;;;;5090904;28;20372;-81
2022/06/15 04:40:51;;;;;;;1.30;0.60;;;18.30;60.90;;;;;;5090405;28;20407;-82
2022/06/15 04:43:18;;;;;;;1.70;0.80;;;18.50;61.40;;;;;;5090323;28;20817;-81
2022/06/15 04:45:45;;;;;;;1.90;0.90;;;18.60;61.00;;;;;;5090471;28;20407;-84
2022/06/15 04:48:12;;;;;;;0.60;0.60;;;18.60;62.60;;;;;;5090254;28;20368;-80
2022/06/15 04:50:40;;;;;;;1.50;0.70;;;18.70;60.00;;;;;;5090366;28;20724;-81
2022/06/15 04:53:08;;;;;;;1.00;0.70;;;18.80;58.60;;;;;;5090251;28;20380;-81
2022/06/15 04:55:35;;;;;;;1.95;0.80;;;19.00;58.90;;;;;;5091211;28;20757;-82
2022/06/15 04:58:04;;;;;;;0.65;0.50;;;19.50;57.50;;;;;;5090105;28;20364;-81
2022/06/15 05:00:35;;;;;;;1.00;0.63;;;19.60;55.40;;;;;;5090028;28;20439;-80
2022/06/15 05:03:04;;;;;;;1.17;0.70;;;19.30;57.00;;;;;;5089773;28;20464;-81
2022/06/15 05:05:31;;;;;;;1.42;0.63;;;19.10;58.70;;;;;;5089809;28;20372;-81
2022/06/15 05:07:58;;;;;;;4.57;1.53;;;18.90;56.90;;;;;;5089616;28;20368;-81
2022/06/15 05:10:26;;;;;;;5.15;3.88;;;18.70;58.00;;;;;;5089693;28;20385;-82
2022/06/15 05:12:54;;;;;;;4.85;3.85;;;18.70;58.10;;;;;;5089396;28;20447;-82
2022/06/15 05:15:22;;;;;;;3.47;2.47;;;18.50;57.80;;;;;;5089571;28;20503;-82
2022/06/15 05:17:50;;;;;;;2.60;0.70;;;18.40;58.90;;;;;;5089520;28;20394;-82
2022/06/15 05:20:18;;;;;;;0.93;0.63;;;18.40;56.90;;;;;;5088787;28;20469;-82
2022/06/15 05:22:51;;;;;;;0.80;0.52;;;18.40;58.80;;;;;;5089348;28;20383;-82
2022/06/15 05:25:19;;;;;;;0.88;0.70;;;18.50;57.30;;;;;;5089686;28;20360;-82
2022/06/15 05:27:47;;;;;;;1.08;0.68;;;18.40;57.70;;;;;;5089724;28;20388;-82
2022/06/15 05:30:14;;;;;;;1.83;0.80;;;18.50;56.90;;;;;;5089042;28;20365;-83
2022/06/15 05:32:41;;;;;;;1.85;0.80;;;18.40;56.10;;;;;;5089383;28;20849;-82
2022/06/15 05:35:09;;;;;;;1.15;0.60;;;18.30;55.80;;;;;;5089614;28;20380;-83
2022/06/15 05:37:37;;;;;;;2.00;0.60;;;18.40;57.20;;;;;;5089327;28;20398;-83
2022/06/15 05:40:05;;;;;;;1.33;0.57;;;18.40;56.90;;;;;;5089082;28;20384;-81
2022/06/15 05:42:32;;;;;;;1.00;0.53;;;18.40;57.00;;;;;;5089298;28;20459;-83
2022/06/15 05:45:01;;;;;;;1.90;0.68;;;18.40;56.80;;;;;;5089008;28;20368;-82
2022/06/15 05:47:29;;;;;;;2.10;0.60;;;18.40;56.60;;;;;;5089086;28;20381;-83
2022/06/15 05:49:58;;;;;;;1.00;0.60;;;18.30;57.00;;;;;;5089753;28;20510;-85
2022/06/15 05:52:25;;;;;;;1.30;0.80;;;18.40;57.70;;;;;;5070804;28;20752;-84
2022/06/15 05:54:52;;;;;;;2.20;0.77;;;18.40;57.20;;;;;;5089088;28;20905;-84
2022/06/15 05:57:22;;;;;;;1.35;0.90;;;18.40;57.50;;;;;;5089060;28;20465;-85
2022/06/15 05:59:50;;;;;;;1.30;0.70;;;18.40;57.40;;;;;;5088845;28;20376;-86
2022/06/15 06:02:20;;;;;;;1.58;0.77;;;18.30;57.70;;;;;;5088964;28;20365;-84
2022/06/15 06:04:48;;;;;;;0.63;0.63;;;18.10;57.90;;;;;;5089300;28;20408;-85
2022/06/15 06:07:15;;;;;;;2.55;0.80;;;18.00;57.90;;;;;;5088878;28;20380;-84
2022/06/15 06:09:42;;;;;;;1.88;1.00;;;18.00;57.20;;;;;;5089100;28;20384;-85
2022/06/15 06:12:10;;;;;;;2.13;1.20;;;18.00;57.90;;;;;;5088797;28;20371;-85
2022/06/15 06:14:38;;;;;;;2.53;1.13;;;17.80;58.20;;;;;;5088843;28;20383;-84
2022/06/15 06:17:07;;;;;;;2.03;1.63;;;17.50;58.70;;;;;;5088529;28;20400;-84
2022/06/15 06:19:34;;;;;;;2.63;1.60;;;17.30;59.70;;;;;;5089630;28;20477;-82
2022/06/15 06:22:01;;;;;;;2.63;1.65;;;17.20;60.60;;;;;;5090670;28;20868;-81
2022/06/15 06:24:28;;;;;;;2.38;1.25;;;17.10;61.00;;;;;;5070974;28;20816;-81
2022/06/15 06:27:00;;;;;;;3.05;1.20;;;17.00;60.70;;;;;;5088774;28;20872;-84
2022/06/15 06:29:29;;;;;;;1.67;1.00;;;17.00;60.80;;;;;;5088822;28;20848;-82
2022/06/15 06:31:58;;;;;;;2.30;1.10;;;16.80;60.70;;;;;;5088836;28;20376;-83
2022/06/15 06:34:26;;;;;;;2.33;1.10;;;16.70;60.90;;;;;;5088325;28;20793;-81
2022/06/15 06:36:54;;;;;;;3.60;1.75;;;16.50;61.40;;;;;;5088215;28;20400;-85
2022/06/15 06:39:28;;;;;;;3.85;2.38;;;16.20;63.10;;;;;;5088489;28;20441;-81
2022/06/15 06:41:59;;;;;;;3.03;2.35;;;15.90;64.30;;;;;;5088253;28;20475;-84
2022/06/15 06:44:26;;;;;;;3.67;2.97;;;15.80;65.10;;;;;;5088595;28;20396;-81
2022/06/15 06:46:54;;;;;;;4.22;1.90;;;15.60;65.90;;;;;;5088291;28;20380;-84
2022/06/15 06:49:23;;;;;;;4.10;2.80;;;15.60;63.70;;;;;;5088618;28;20451;-80
2022/06/15 06:51:51;;;;;;;7.88;3.10;;;15.60;65.10;;;;;;5088381;28;20460;-82
2022/06/15 06:54:21;;;;;;;3.70;1.88;;;15.60;61.80;;;;;;5088639;28;20406;-82
2022/06/15 06:56:48;;;;;;;2.10;1.38;;;15.70;59.60;;;;;;5088445;28;20380;-85
2022/06/15 06:59:17;;;;;;;1.60;1.00;;;15.80;57.80;;;;;;5070164;28;20736;-83
2022/06/15 07:01:46;;;;;;;2.60;1.00;;;15.90;57.20;;;;;;5088457;28;20443;-85
2022/06/15 07:04:14;;;;;;;1.30;0.90;;;15.80;57.00;;;;;;5090638;28;20437;-85
2022/06/15 07:06:42;;;;;;;3.08;1.23;;;15.80;57.20;;;;;;5088939;28;20918;-87
2022/06/15 07:09:09;;;;;;;1.60;1.00;;;15.70;56.80;;;;;;5088553;28;20384;-84
2022/06/15 07:11:37;;;;;;;2.45;0.98;;;15.70;56.90;;;;;;5088175;28;20377;-86
2022/06/15 07:14:05;;;;;;;3.30;1.10;;;15.50;57.60;;;;;;5087986;28;20360;-85
2022/06/15 07:16:32;;;;;;;1.50;0.93;;;15.50;58.20;;;;;;5088552;28;20388;-79
2022/06/15 07:18:59;;;;;;;2.60;1.08;;;15.40;57.70;;;;;;5088233;28;20418;-84
2022/06/15 07:21:27;;;;;;;1.75;1.00;;;15.40;57.90;;;;;;5087850;28;20411;-84
2022/06/15 07:23:57;;;;;;;4.13;1.00;;;15.50;56.70;;;;;;5087992;28;20368;-85
2022/06/15 07:26:34;;;;;;;1.97;1.00;;;15.60;55.30;;;;;;5088016;28;20803;-82
2022/06/15 07:29:02;;;;;;;1.52;1.00;;;15.70;55.40;;;;;;5088026;28;20395;-88
2022/06/15 07:31:39;;;;;;;1.30;1.00;;;15.60;55.50;;;;;;5088051;28;20795;-83
2022/06/15 07:34:08;;;;;;;1.52;0.80;;;15.60;55.60;;;;;;5088312;28;20396;-86
2022/06/15 07:36:38;;;;;;;2.37;1.00;;;15.60;54.80;;;;;;5088248;28;20388;-84
2022/06/15 07:39:06;;;;;;;1.48;1.20;;;15.70;54.70;;;;;;5087948;28;20395;-85
2022/06/15 07:41:34;;;;;;;1.50;1.00;;;15.80;54.80;;;;;;5088058;28;20427;-85
2022/06/15 07:44:01;;;;;;;1.33;1.20;;;15.80;54.50;;;;;;5090615;28;20439;-86
2022/06/15 07:46:28;;;;;;;1.85;1.30;;;15.70;54.50;;;;;;5093417;28;20383;-85
2022/06/15 07:51:46;;;;;;;3.58;1.50;;;15.70;54.50;;;;;;5091998;28;20419;-86
2022/06/15 07:54:16;;;;;;;2.30;1.40;;;15.50;54.80;;;;;;5092055;28;20848;-88
2022/06/15 07:56:44;;;;;;;4.05;1.40;;;15.40;54.90;;;;;;5091186;28;20410;-84
2022/06/15 07:59:12;;;;;;;3.58;1.30;;;15.30;54.80;;;;;;5091336;28;20382;-83
2022/06/15 08:01:39;;;;;;;4.15;2.00;;;15.30;54.50;;;;;;5072774;28;20767;-83
2022/06/15 08:04:07;;;;;;;19.73;4.88;;;15.30;54.70;;;;;;5090887;28;20372;-83
2022/06/15 08:06:37;;;;;;;19.83;5.50;;;15.40;54.10;;;;;;5090936;28;20380;-83
2022/06/15 08:09:09;;;;;;;17.10;3.77;;;15.40;54.20;;;;;;5091154;28;20811;-84
2022/06/15 08:12:11;;;;;;;10.82;3.25;;;15.30;54.70;;;;;;5090616;28;20368;-82
2022/06/15 08:14:27;;;;;;;13.05;3.67;;;15.20;55.40;;;;;;5090646;28;20852;-83
2022/06/15 08:16:55;;;;;;;10.55;3.00;;;15.20;55.50;;;;;;5090851;28;20387;-83
2022/06/15 08:19:22;;;;;;;10.63;3.20;;;15.00;56.20;;;;;;5072681;28;20372;-87
2022/06/15 08:21:50;;;;;;;13.02;3.17;;;14.80;57.10;;;;;;5090896;28;20408;-82
2022/06/15 08:24:17;;;;;;;6.80;2.40;;;14.50;57.70;;;;;;5090728;28;20430;-86
2022/06/15 08:26:45;;;;;;;9.57;4.53;;;14.10;58.90;;;;;;5090649;28;20784;-84
2022/06/15 08:29:14;;;;;;;7.03;3.40;;;13.90;60.00;;;;;;5090822;28;20455;-85
2022/06/15 08:31:41;;;;;;;9.23;4.70;;;13.70;60.80;;;;;;5091194;28;20376;-90
2022/06/15 08:34:10;;;;;;;9.05;5.38;;;13.60;61.60;;;;;;5072545;28;20380;-85
2022/06/15 08:36:37;;;;;;;7.03;3.10;;;13.60;61.90;;;;;;5090612;28;20473;-86
2022/06/15 08:39:06;;;;;;;3.53;2.00;;;13.40;62.80;;;;;;5091017;28;20375;-83
2022/06/15 08:41:48;;;;;;;6.70;2.20;;;13.10;63.50;;;;;;5091270;28;20400;-83
2022/06/15 08:44:28;;;;;;;2.95;1.90;;;12.80;64.20;;;;;;5091252;28;20447;-82
2022/06/15 08:47:33;;;;;;;2.70;1.90;;;12.50;65.50;;;;;;5091201;28;20395;-85
2022/06/15 08:50:26;;;;;;;3.40;2.00;;;12.40;66.20;;;;;;5090968;28;20706;-87
2022/06/15 08:53:04;;;;;;;3.17;2.10;;;12.40;67.90;;;;;;5091829;28;20357;-81
2022/06/15 08:55:39;;;;;;;4.10;2.20;;;12.40;67.70;;;;;;5089874;28;20438;-84
2022/06/15 08:58:31;;;;;;;3.78;2.70;;;12.20;68.90;;;;;;5090438;28;20365;-85
2022/06/15 09:01:04;;;;;;;5.18;4.05;;;12.00;69.70;;;;;;5090585;28;20400;-86
2022/06/15 09:03:52;;;;;;;4.43;3.20;;;11.80;70.60;;;;;;5072642;28;20417;-85
2022/06/15 09:06:44;;;;;;;4.68;2.92;;;11.60;71.30;;;;;;5091051;28;20380;-88
2022/06/15 09:09:37;;;;;;;5.50;3.10;;;11.30;72.70;;;;;;5093117;28;20368;-84
2022/06/15 09:15:43;;;;;;;5.40;3.75;;;11.10;75.20;;;;;;5091344;28;20421;-84
2022/06/15 09:18:21;;;;;;;6.10;3.95;;;10.90;76.90;;;;;;5090217;28;20391;-82
2022/06/15 09:21:02;;;;;;;7.38;3.92;;;10.90;78.00;;;;;;5091447;28;20408;-90
2022/06/15 09:23:39;;;;;;;7.10;3.80;;;10.80;79.00;;;;;;5092575;28;20348;-82
2022/06/15 09:26:31;;;;;;;9.85;4.78;;;10.70;79.70;;;;;;5090908;28;20417;-90
2022/06/15 09:29:11;;;;;;;6.95;4.57;;;10.60;80.30;;;;;;5090489;28;20417;-84
2022/06/15 09:31:44;;;;;;;7.00;4.40;;;10.70;80.80;;;;;;5091346;28;20360;-84
2022/06/15 09:34:19;;;;;;;6.72;4.63;;;10.70;81.40;;;;;;5090975;28;20381;-89
2022/06/15 09:36:53;;;;;;;6.55;4.47;;;10.60;82.40;;;;;;5090452;28;20722;-86
2022/06/15 09:39:21;;;;;;;7.57;4.80;;;10.60;83.40;;;;;;5091021;28;20387;-85
2022/06/15 09:42:24;;;;;;;6.72;4.40;;;10.60;84.50;;;;;;5090864;28;20400;-87
2022/06/15 09:45:06;;;;;;;7.57;4.93;;;10.70;84.90;;;;;;5090761;28;20456;-85
2022/06/15 09:48:33;;;;;;;5.90;4.00;;;10.80;85.80;;;;;;5091372;28;20364;-85
2022/06/15 09:51:06;;;;;;;5.10;3.70;;;10.90;86.00;;;;;;4990484;28;20377;-86
2022/06/15 09:54:06;;;;;;;6.43;3.47;;;11.00;85.50;;;;;;4990647;28;20382;-87
2022/06/15 09:56:34;;;;;;;4.60;3.60;;;11.10;85.90;;;;;;4989649;28;20515;-83
2022/06/15 09:59:09;;;;;;;4.00;3.40;;;11.10;86.10;;;;;;4989228;28;20409;-82
2022/06/15 10:01:41;;;;;;;5.70;4.18;;;11.10;86.90;;;;;;4989161;28;20487;-92
2022/06/15 10:04:29;;;;;;;5.93;4.00;;;11.10;88.30;;;;;;4988430;28;20885;-89
2022/06/15 10:07:03;;;;;;;8.45;4.25;;;11.00;89.50;;;;;;4988681;28;20405;-85
2022/06/15 10:09:34;;;;;;;8.53;4.70;;;11.00;90.30;;;;;;4988758;28;20377;-85
2022/06/15 10:15:12;;;;;;;5.60;4.47;;;10.90;91.70;;;;;;4988496;28;20430;-88
2022/06/15 10:17:45;;;;;;;8.18;5.03;;;10.90;92.60;;;;;;4988512;28;20381;-88
2022/06/15 10:20:35;;;;;;;7.95;4.80;;;10.80;93.10;;;;;;4989110;28;20412;-88
2022/06/15 10:23:07;;;;;;;10.57;5.00;;;10.80;94.20;;;;;;5090141;28;20376;-87
2022/06/15 10:25:38;;;;;;;7.32;4.70;;;10.80;94.40;;;;;;5090923;28;20361;-84
2022/06/15 10:28:15;;;;;;;7.85;4.88;;;10.80;94.90;;;;;;5093087;28;20842;-88
2022/06/15 10:31:08;;;;;;;9.85;5.20;;;10.70;95.20;;;;;;5092402;28;20371;-82
2022/06/15 10:33:39;;;;;;;9.88;6.18;;;10.70;95.60;;;;;;5091472;28;20391;-86
2022/06/15 10:36:15;;;;;;;9.50;6.43;;;10.70;96.00;;;;;;5089615;28;20396;-88
2022/06/15 10:38:46;;;;;;;8.27;5.93;;;10.60;96.50;;;;;;5089802;28;20401;-82
2022/06/15 10:43:59;;;;;;;7.50;5.60;;;10.50;97.20;;;;;;5089473;28;20356;-85
2022/06/15 10:46:26;;;;;;;6.10;5.10;;;10.50;97.80;;;;;;5089281;28;20401;-87
2022/06/15 10:48:57;;;;;;;6.63;4.90;;;10.50;98.00;;;;;;5089433;28;20797;-87
2022/06/15 10:51:33;;;;;;;6.15;5.07;;;10.50;98.10;;;;;;5089547;28;20377;-82
2022/06/15 10:54:24;;;;;;;8.15;4.72;;;10.50;98.40;;;;;;5089512;28;20407;-82
2022/06/15 11:02:41;;;;;;;5.82;3.40;;;10.40;99.40;;;;;;5090031;28;20904;-89
2022/06/15 11:05:21;;;;;;;4.40;3.50;;;10.40;99.90;;;;;;5090268;28;20418;-84
2022/06/15 11:07:58;;;;;;;5.47;3.50;;;10.40;99.90;;;;;;5071327;28;20380;-87
2022/06/15 11:10:38;;;;;;;4.10;3.53;;;10.40;99.90;;;;;;5089350;28;20400;-87
2022/06/15 11:13:30;;;;;;;3.95;3.10;;;10.40;99.90;;;;;;5091557;28;20774;-84
2022/06/15 11:19:08;;;;;;;3.22;2.80;;;10.40;99.90;;;;;;4991196;28;20400;-88
2022/06/15 11:21:47;;;;;;;4.25;2.60;;;10.40;99.90;;;;;;4992262;28;20423;-83
2022/06/15 11:24:34;;;;;;;4.75;2.58;;;10.40;99.90;;;;;;4992011;28;20482;-84
2022/06/15 11:27:52;;;;;;;3.67;3.00;;;10.40;99.90;;;;;;4975104;28;20376;-85
2022/06/15 11:30:35;;;;;;;9.88;6.82;;;10.30;99.90;;;;;;4988806;28;20385;-88
2022/06/15 11:33:23;;;;;;;11.95;9.05;;;10.20;99.90;;;;;;4994223;28;20463;-84
2022/06/15 11:36:05;;;;;;;10.73;7.85;;;10.20;99.90;;;;;;4997753;28;20413;-85
2022/06/15 11:38:50;;;;;;;8.30;6.45;;;10.10;99.90;;;;;;5012802;28;20826;-87
2022/06/15 11:41:25;;;;;;;8.10;5.77;;;10.10;99.90;;;;;;5011361;28;20430;-90
2022/06/15 11:43:55;;;;;;;7.25;5.53;;;10.00;99.90;;;;;;5011609;28;20879;-86
2022/06/15 11:46:47;;;;;;;6.15;5.00;;;9.90;99.90;;;;;;5010853;28;20426;-89
2022/06/15 11:49:36;;;;;;;5.63;4.70;;;9.80;99.90;;;;;;5011365;28;20367;-86
2022/06/15 11:52:39;;;;;;;6.40;5.00;;;9.70;99.90;;;;;;5023783;28;20379;-87
2022/06/15 11:55:14;;;;;;;6.50;4.60;;;9.60;99.90;;;;;;5092842;28;20369;-89
2022/06/15 11:57:44;;;;;;;8.68;4.93;;;9.60;99.90;;;;;;5092462;28;20369;-83
2022/06/15 12:00:42;;;;;;;5.00;4.30;;;9.60;99.90;;;;;;5092322;28;20424;-83
2022/06/15 12:03:34;;;;;;;5.65;4.28;;;9.50;99.90;;;;;;5092385;28;20383;-90
2022/06/15 12:06:01;;;;;;;8.37;5.10;;;9.50;99.90;;;;;;5093127;28;20421;-89
2022/06/15 12:08:52;;;;;;;7.80;6.10;;;9.50;99.90;;;;;;5092389;28;20727;-89
2022/06/15 12:14:42;;;;;;;8.55;5.93;;;9.40;99.90;;;;;;5092697;28;20364;-86
2022/06/15 12:17:51;;;;;;;9.00;5.30;;;9.40;99.90;;;;;;5092220;28;20720;-86
2022/06/15 12:20:27;;;;;;;7.78;6.05;;;9.30;99.90;;;;;;5010023;28;20491;-88
2022/06/15 12:23:17;;;;;;;7.18;5.20;;;9.30;99.90;;;;;;5009651;28;20503;-88
2022/06/15 12:25:51;;;;;;;8.20;5.95;;;9.20;99.90;;;;;;4932549;29;20385;-87
2022/06/15 12:28:45;;;;;;;6.97;5.70;;;9.20;99.90;;;;;;4933033;29;20386;-84
2022/06/15 12:31:21;;;;;;;8.13;5.47;;;9.20;99.90;;;;;;4932793;29;20382;-82
2022/06/15 12:34:03;;;;;;;8.18;5.15;;;9.20;99.90;;;;;;4932810;29;20386;-87
2022/06/15 12:36:47;;;;;;;6.35;4.50;;;9.20;99.90;;;;;;4931986;29;20433;-86
2022/06/15 12:39:25;;;;;;;5.65;4.32;;;9.20;99.90;;;;;;4933918;29;20755;-89
2022/06/15 12:42:13;;;;;;;4.77;3.60;;;9.10;99.90;;;;;;4934035;29;20497;-87
2022/06/15 12:45:02;;;;;;;5.43;3.65;;;9.20;99.90;;;;;;4933274;29;20384;-87
2022/06/15 12:47:30;;;;;;;5.57;3.58;;;9.20;99.90;;;;;;4932625;29;20390;-87
2022/06/15 12:50:06;;;;;;;4.45;3.40;;;9.20;99.90;;;;;;4932521;29;20517;-87
2022/06/15 12:52:53;;;;;;;4.55;3.45;;;9.20;99.90;;;;;;4932941;29;20922;-85
2022/06/15 12:55:44;;;;;;;5.30;3.50;;;9.20;99.90;;;;;;4932601;29;20847;-89
2022/06/15 12:58:35;;;;;;;9.88;3.50;;;9.30;99.90;;;;;;5027512;28;20464;-90
2022/06/15 13:01:24;;;;;;;4.78;3.40;;;9.30;99.90;;;;;;5029487;28;20544;-87
2022/06/15 13:04:23;;;;;;;4.70;3.20;;;9.30;99.90;;;;;;5088616;28;20369;-87
2022/06/15 13:07:27;;;;;;;3.67;3.10;;;9.30;99.90;;;;;;5009722;28;20466;-88
2022/06/15 13:10:14;;;;;;;4.15;3.00;;;9.20;99.90;;;;;;5009123;28;20379;-91
2022/06/15 13:12:54;;;;;;;3.88;3.08;;;9.20;99.90;;;;;;5009542;28;20462;-91
2022/06/15 13:15:30;;;;;;;4.50;3.22;;;9.10;99.90;;;;;;5009899;28;20386;-86
2022/06/15 13:18:08;;;;;;;4.07;3.05;;;9.10;99.90;;;;;;5009339;28;20385;-87
2022/06/15 13:21:02;;;;;;;3.83;3.00;;;9.00;99.90;;;;;;5008764;28;20403;-87
2022/06/15 13:23:32;;;;;;;4.17;3.00;;;9.10;99.90;;;;;;5009438;28;20903;-91
2022/06/15 13:26:01;;;;;;;5.20;3.45;;;9.10;99.90;;;;;;5008794;28;20387;-87
2022/06/15 13:28:35;;;;;;;3.85;2.90;;;9.10;99.90;;;;;;5009383;28;20390;-87
2022/06/15 13:31:09;;;;;;;4.47;3.25;;;9.20;99.90;;;;;;5009194;28;20466;-87
2022/06/15 13:33:51;;;;;;;5.20;3.25;;;9.30;99.90;;;;;;5009235;28;20371;-90
2022/06/15 13:36:23;;;;;;;3.97;3.40;;;9.10;99.90;;;;;;5008507;28;20398;-88
2022/06/15 13:38:53;;;;;;;2.93;2.63;;;9.10;99.90;;;;;;5008761;28;20874;-87
2022/06/15 13:41:25;;;;;;;3.83;2.90;;;9.10;99.90;;;;;;5014050;28;20415;-88
2022/06/15 13:43:53;;;;;;;4.22;3.25;;;9.10;99.90;;;;;;5090341;28;20377;-85
2022/06/15 13:46:27;;;;;;;3.85;3.10;;;9.00;99.90;;;;;;5091203;28;20377;-85
2022/06/15 13:49:05;;;;;;;4.28;3.00;;;9.10;99.90;;;;;;5090832;28;20482;-90